Time;durP1;ratioP1;P1;durP2;ratioP2;P2;SDS_P1;SDS_P2;PMS_P1;PMS_P2;Temp;Humidity;BMP_temperature;BMP_pressure;BME280_temperature;BME280_humidity;BME280_pressure;Samples;Min_cycle;Max_cycle;Signal;HPM_P1;HPM_P2
2023/04/04 00:00:33;;;;;;;4.93;2.17;;;;;;;0.52;65.70;99393.38;5005396;28;20290;-60
2023/04/04 00:02:59;;;;;;;5.68;2.22;;;;;;;0.42;66.63;99388.63;5004075;28;20787;-60
2023/04/04 00:05:26;;;;;;;2.53;1.50;;;;;;;0.48;65.76;99394.41;5001757;28;20702;-61
2023/04/04 00:07:54;;;;;;;5.37;1.90;;;;;;;0.50;65.44;99387.47;5005322;28;20247;-60
2023/04/04 00:10:21;;;;;;;3.67;1.70;;;;;;;0.40;65.65;99382.72;5000193;28;20316;-61
2023/04/04 00:12:47;;;;;;;2.37;1.70;;;;;;;0.36;66.60;99383.75;5004924;28;20679;-60
2023/04/04 00:15:14;;;;;;;3.77;1.90;;;;;;;0.18;66.93;99379.41;5002549;28;20560;-61
2023/04/04 00:17:41;;;;;;;7.53;2.30;;;;;;;0.05;69.04;99379.94;5005718;28;20231;-62
2023/04/04 00:20:08;;;;;;;3.87;1.97;;;;;;;-0.12;71.60;99372.16;5003108;28;20293;-61
2023/04/04 00:22:34;;;;;;;5.63;1.70;;;;;;;0.10;67.83;99367.75;5005156;28;20238;-61
2023/04/04 00:25:03;;;;;;;3.90;1.70;;;;;;;0.11;68.30;99368.59;5003191;28;20708;-62
2023/04/04 00:27:30;;;;;;;2.93;1.50;;;;;;;0.08;68.06;99377.25;5001590;28;20832;-61
2023/04/04 00:29:56;;;;;;;4.33;1.87;;;;;;;0.02;71.78;99374.94;4992359;28;20258;-60
2023/04/04 00:32:23;;;;;;;2.87;2.00;;;;;;;-0.24;72.53;99374.31;4998467;28;20268;-61
2023/04/04 00:34:52;;;;;;;7.13;2.07;;;;;;;-0.46;73.91;99367.50;5003244;28;20223;-61
2023/04/04 00:37:20;;;;;;;5.03;2.00;;;;;;;-0.61;76.35;99366.41;5000111;28;20311;-61
2023/04/04 00:39:47;;;;;;;3.43;1.93;;;;;;;-0.77;77.74;99361.03;5002660;28;20232;-61
2023/04/04 00:42:15;;;;;;;5.47;2.37;;;;;;;-0.87;78.68;99369.97;4998478;28;20237;-62
2023/04/04 00:44:41;;;;;;;4.50;2.57;;;;;;;-0.97;79.09;99358.41;5001990;28;20224;-60
2023/04/04 00:47:08;;;;;;;4.83;2.40;;;;;;;-1.04;79.95;99361.22;4991860;28;20232;-61
2023/04/04 00:49:36;;;;;;;4.33;2.20;;;;;;;-0.91;76.72;99361.59;5001811;28;20228;-62
2023/04/04 00:52:05;;;;;;;5.30;2.40;;;;;;;-1.01;79.19;99359.41;5003187;28;20223;-60
2023/04/04 00:54:33;;;;;;;3.00;2.00;;;;;;;-1.00;79.74;99361.09;5000658;28;20315;-61
2023/04/04 00:57:01;;;;;;;3.90;2.10;;;;;;;-1.16;80.83;99360.84;5002043;28;20228;-61
2023/04/04 00:59:29;;;;;;;5.43;2.80;;;;;;;-1.13;80.27;99355.63;4998685;28;20243;-61
2023/04/04 01:01:56;;;;;;;3.63;2.10;;;;;;;-1.15;79.74;99350.56;4996201;28;20228;-61
2023/04/04 01:04:22;;;;;;;3.57;2.07;;;;;;;-1.15;79.10;99345.44;5014096;28;20294;-60
2023/04/04 01:06:50;;;;;;;4.00;2.40;;;;;;;-1.07;79.56;99351.09;4995537;28;20801;-61
2023/04/04 01:09:18;;;;;;;4.67;2.27;;;;;;;-0.99;78.81;99340.53;5001299;28;20240;-61
2023/04/04 01:11:45;;;;;;;4.17;2.50;;;;;;;-0.96;79.17;99344.69;5004131;28;20322;-62
2023/04/04 01:14:13;;;;;;;3.40;2.03;;;;;;;-1.01;78.24;99346.59;4991893;28;20302;-62
2023/04/04 01:16:41;;;;;;;6.10;2.40;;;;;;;-0.88;75.89;99342.66;5003701;28;20315;-61
2023/04/04 01:19:12;;;;;;;6.03;2.43;;;;;;;-0.69;73.28;99344.50;4993692;28;20243;-61
2023/04/04 01:21:40;;;;;;;5.77;2.63;;;;;;;-0.67;73.33;99342.72;5019941;28;20248;-61
2023/04/04 01:24:08;;;;;;;6.63;2.00;;;;;;;-0.48;70.79;99353.91;5000549;28;20228;-61
2023/04/04 01:26:45;;;;;;;3.97;2.20;;;;;;;-0.46;70.95;99341.00;5020769;28;20232;-61
2023/04/04 01:29:12;;;;;;;4.03;2.30;;;;;;;-0.49;70.84;99344.53;5016525;28;20250;-60
2023/04/04 01:31:42;;;;;;;3.60;2.17;;;;;;;-0.51;71.44;99345.50;4993233;28;20235;-62
2023/04/04 01:34:17;;;;;;;4.90;2.83;;;;;;;-0.61;72.69;99335.63;5000414;28;20232;-62
2023/04/04 01:36:57;;;;;;;6.80;2.30;;;;;;;-0.72;74.22;99342.91;4993877;28;20319;-62
2023/04/04 01:39:31;;;;;;;6.47;2.63;;;;;;;-0.60;71.68;99333.88;4990526;28;20323;-62
2023/04/04 01:42:01;;;;;;;4.50;2.60;;;;;;;-0.54;70.89;99336.19;5004830;28;20259;-62
2023/04/04 01:44:29;;;;;;;5.17;2.67;;;;;;;-0.46;69.02;99333.31;4992152;28;20537;-62
2023/04/04 01:46:56;;;;;;;3.17;2.20;;;;;;;-0.40;69.05;99333.06;5004792;28;20232;-61
2023/04/04 01:49:23;;;;;;;6.50;2.50;;;;;;;-0.05;65.22;99338.44;4994542;28;20219;-61
2023/04/04 01:51:51;;;;;;;5.80;2.70;;;;;;;-0.12;65.47;99333.66;5003306;28;20240;-60
2023/04/04 01:54:18;;;;;;;5.57;2.47;;;;;;;-0.13;65.46;99339.69;5000202;28;20241;-61
2023/04/04 01:56:45;;;;;;;3.77;2.40;;;;;;;-0.11;65.17;99337.88;5004732;28;20228;-61
2023/04/04 01:59:14;;;;;;;6.67;2.97;;;;;;;-0.06;62.87;99325.69;5000068;28;20619;-61
2023/04/04 02:01:42;;;;;;;3.60;2.43;;;;;;;0.04;62.34;99332.06;4992389;28;20311;-61
2023/04/04 02:04:11;;;;;;;4.17;2.47;;;;;;;0.01;62.58;99326.25;4991532;28;20239;-61
2023/04/04 02:06:38;;;;;;;3.37;2.47;;;;;;;-0.08;62.58;99333.44;4998271;28;20232;-62
2023/04/04 02:09:05;;;;;;;6.40;2.27;;;;;;;-0.14;64.08;99325.19;4995553;28;20229;-61
2023/04/04 02:11:32;;;;;;;3.60;2.40;;;;;;;-0.22;62.53;99326.34;5006753;28;20243;-60
2023/04/04 02:13:59;;;;;;;3.10;2.30;;;;;;;-0.19;61.30;99335.63;4994984;28;20234;-61
2023/04/04 02:16:28;;;;;;;4.27;2.17;;;;;;;-0.21;61.83;99333.13;4994787;28;20236;-61
2023/04/04 02:18:55;;;;;;;4.40;2.70;;;;;;;-0.32;62.55;99327.63;5008079;28;20250;-61
2023/04/04 02:21:24;;;;;;;4.40;2.53;;;;;;;-0.27;61.33;99335.13;4994144;28;20243;-61
2023/04/04 02:23:51;;;;;;;4.00;2.47;;;;;;;-0.41;63.13;99339.09;5006094;28;20707;-60
2023/04/04 02:26:17;;;;;;;5.33;2.47;;;;;;;-0.52;64.02;99331.84;5005455;28;20231;-60
2023/04/04 02:28:44;;;;;;;4.13;2.30;;;;;;;-0.65;65.54;99334.09;5006491;28;20231;-61
2023/04/04 02:31:10;;;;;;;5.50;2.40;;;;;;;-0.60;63.64;99326.19;5004776;28;20257;-60
2023/04/04 02:33:38;;;;;;;4.60;2.33;;;;;;;-0.57;63.63;99331.19;4995776;28;20244;-61
2023/04/04 02:36:07;;;;;;;2.73;2.13;;;;;;;-0.54;62.22;99333.63;5003386;28;20224;-61
2023/04/04 02:38:33;;;;;;;4.97;2.47;;;;;;;-0.70;63.03;99335.16;5005903;28;20695;-61
2023/04/04 02:41:04;;;;;;;4.27;2.20;;;;;;;-0.60;61.57;99331.31;4997312;28;20231;-61
2023/04/04 02:43:30;;;;;;;3.47;2.20;;;;;;;-0.57;62.66;99328.63;5004033;28;20568;-61
2023/04/04 02:45:57;;;;;;;3.10;2.13;;;;;;;-0.66;63.81;99339.25;4997019;28;20255;-61
2023/04/04 02:48:26;;;;;;;4.57;3.03;;;;;;;-0.71;61.00;99333.47;5003483;28;20591;-61
2023/04/04 02:50:58;;;;;;;4.53;2.03;;;;;;;-0.70;63.22;99327.47;4996585;28;20224;-61
2023/04/04 02:53:24;;;;;;;6.10;2.60;;;;;;;-0.75;63.22;99323.34;4995345;28;20228;-60
2023/04/04 02:55:54;;;;;;;4.87;2.33;;;;;;;-0.75;61.88;99328.47;4995830;28;20285;-61
2023/04/04 02:58:21;;;;;;;3.83;2.43;;;;;;;-0.76;63.94;99311.44;5004708;28;20224;-61
2023/04/04 03:00:54;;;;;;;6.57;2.40;;;;;;;-0.88;65.96;99322.16;4996706;28;20232;-61
2023/04/04 03:03:22;;;;;;;2.67;2.10;;;;;;;-0.66;62.47;99322.16;5003067;28;20263;-61
2023/04/04 03:05:50;;;;;;;6.33;2.53;;;;;;;-0.69;62.20;99316.31;5005719;28;20260;-62
2023/04/04 03:08:18;;;;;;;6.53;2.30;;;;;;;-0.59;59.88;99315.03;5004567;28;20305;-62
2023/04/04 03:10:46;;;;;;;6.53;2.50;;;;;;;-0.69;61.88;99311.19;5003771;28;20236;-62
2023/04/04 03:13:12;;;;;;;6.53;2.27;;;;;;;-0.65;60.73;99318.69;5003174;28;20255;-61
2023/04/04 03:15:40;;;;;;;7.77;2.67;;;;;;;-0.67;61.07;99310.25;4996570;28;20310;-61
2023/04/04 03:18:07;;;;;;;4.30;1.97;;;;;;;-0.70;63.02;99319.78;5003228;28;20702;-61
2023/04/04 03:20:34;;;;;;;6.27;2.40;;;;;;;-0.58;61.46;99310.75;5005561;28;20239;-61
2023/04/04 03:23:01;;;;;;;6.33;2.60;;;;;;;-0.74;63.69;99311.38;5006230;28;20235;-61
2023/04/04 03:25:29;;;;;;;4.30;2.70;;;;;;;-0.72;61.54;99306.19;4993421;28;20721;-61
2023/04/04 03:27:56;;;;;;;3.13;2.03;;;;;;;-0.81;63.53;99313.34;5005814;28;20240;-61
2023/04/04 03:33:08;;;;;;;4.87;2.27;;;;;;;-0.83;63.07;99311.75;4983277;22;20231;-61
2023/04/04 03:35:37;;;;;;;3.97;2.13;;;;;;;-0.90;63.44;99319.69;5041328;28;20829;-61
2023/04/04 03:38:04;;;;;;;4.93;2.80;;;;;;;-0.98;65.66;99321.72;5026102;28;20227;-61
2023/04/04 03:40:32;;;;;;;5.10;2.10;;;;;;;-1.07;65.81;99306.69;5024564;28;20239;-60
2023/04/04 03:43:01;;;;;;;5.60;2.10;;;;;;;-0.92;62.50;99307.81;5025141;28;20231;-60
2023/04/04 03:45:28;;;;;;;5.20;2.20;;;;;;;-0.90;61.68;99311.13;5022792;28;20231;-60
2023/04/04 03:47:55;;;;;;;3.43;2.30;;;;;;;-0.83;62.04;99312.56;5025918;28;20253;-61
2023/04/04 03:50:22;;;;;;;4.10;2.30;;;;;;;-0.88;63.87;99319.59;5023130;28;20231;-59
2023/04/04 03:52:52;;;;;;;2.80;2.07;;;;;;;-0.91;64.65;99322.28;5043702;28;20322;-61
2023/04/04 03:55:18;;;;;;;4.17;2.17;;;;;;;-0.86;61.74;99317.81;5024748;28;20227;-61
2023/04/04 03:57:46;;;;;;;3.90;2.60;;;;;;;-0.81;63.17;99323.59;5025930;28;20710;-61
2023/04/04 04:00:15;;;;;;;6.87;2.50;;;;;;;-0.75;62.83;99325.91;5026624;28;20223;-60
2023/04/04 04:02:43;;;;;;;3.13;2.03;;;;;;;-0.69;62.28;99324.84;5023901;28;20724;-60
2023/04/04 04:05:10;;;;;;;4.07;2.07;;;;;;;-0.71;64.73;99323.22;5028078;28;20231;-60
2023/04/04 04:07:37;;;;;;;4.57;2.43;;;;;;;-0.87;65.11;99323.03;5023958;28;20231;-61
2023/04/04 04:10:05;;;;;;;3.93;2.30;;;;;;;-0.98;66.37;99326.00;5025730;28;20287;-59
2023/04/04 04:12:32;;;;;;;4.30;2.30;;;;;;;-1.17;65.98;99326.72;5025456;28;20803;-60
2023/04/04 04:15:00;;;;;;;4.90;2.17;;;;;;;-1.30;67.23;99325.53;5025210;28;20227;-60
2023/04/04 04:17:30;;;;;;;5.70;2.27;;;;;;;-1.44;71.47;99323.47;5023350;28;20238;-60
2023/04/04 04:19:56;;;;;;;4.37;2.60;;;;;;;-1.72;71.21;99325.31;5027706;28;21109;-61
2023/04/04 04:22:24;;;;;;;5.57;3.00;;;;;;;-1.87;73.00;99320.75;5021071;28;20255;-60
2023/04/04 04:24:50;;;;;;;6.30;3.00;;;;;;;-1.93;76.04;99330.31;5026955;28;20242;-60
2023/04/04 04:27:17;;;;;;;4.50;2.40;;;;;;;-1.97;74.81;99326.19;5011744;28;20227;-60
2023/04/04 04:29:44;;;;;;;7.77;2.57;;;;;;;-2.04;75.00;99323.91;5026261;28;20231;-60
2023/04/04 04:32:15;;;;;;;3.97;2.10;;;;;;;-2.12;75.76;99326.75;5021494;28;20733;-60
2023/04/04 04:34:46;;;;;;;3.93;2.40;;;;;;;-2.20;76.73;99318.50;5026803;28;20226;-60
2023/04/04 04:37:14;;;;;;;3.83;2.20;;;;;;;-2.25;76.01;99326.31;5012166;28;20282;-60
2023/04/04 04:39:46;;;;;;;6.33;2.50;;;;;;;-2.33;77.22;99329.16;5023260;28;20243;-60
2023/04/04 04:42:31;;;;;;;7.20;4.47;;;;;;;-2.38;76.61;99329.28;5024505;28;20595;-60
2023/04/04 04:45:00;;;;;;;6.67;3.00;;;;;;;-2.31;78.77;99327.38;5023679;28;20231;-61
2023/04/04 04:47:31;;;;;;;5.77;2.53;;;;;;;-2.18;77.17;99332.91;5020895;28;20240;-60
2023/04/04 04:50:00;;;;;;;10.83;5.97;;;;;;;-2.24;77.04;99344.19;5024452;28;20312;-60
2023/04/04 04:52:36;;;;;;;7.33;5.20;;;;;;;-2.23;76.17;99327.97;5014684;28;20256;-60
2023/04/04 04:55:04;;;;;;;9.40;5.40;;;;;;;-2.28;76.65;99342.63;5022940;28;20234;-59
2023/04/04 04:57:33;;;;;;;5.20;2.47;;;;;;;-1.85;70.44;99336.88;5023252;28;20231;-61
2023/04/04 05:00:03;;;;;;;3.63;2.20;;;;;;;-1.46;70.78;99341.47;5024789;28;20250;-60
2023/04/04 05:02:31;;;;;;;4.83;2.90;;;;;;;-1.56;70.74;99345.25;5011301;28;20426;-61
2023/04/04 05:04:59;;;;;;;6.10;3.27;;;;;;;-1.73;72.77;99344.13;5025906;28;20231;-60
2023/04/04 05:07:27;;;;;;;4.30;2.57;;;;;;;-1.83;72.61;99353.03;5022973;28;20269;-61
2023/04/04 05:09:54;;;;;;;5.97;2.10;;;;;;;-1.88;76.78;99358.31;5025718;28;20697;-60
2023/04/04 05:12:22;;;;;;;5.03;2.47;;;;;;;-1.98;75.98;99347.56;5023504;28;20304;-61
2023/04/04 05:14:51;;;;;;;4.13;2.10;;;;;;;-2.08;76.34;99341.94;5023652;28;20231;-61
2023/04/04 05:17:18;;;;;;;9.27;2.40;;;;;;;-2.21;76.61;99345.78;5022228;28;20234;-61
2023/04/04 05:19:46;;;;;;;7.40;2.87;;;;;;;-2.25;78.06;99352.75;5023760;28;20239;-61
2023/04/04 05:22:16;;;;;;;5.73;2.50;;;;;;;-2.26;78.46;99345.97;5022054;28;20241;-61
2023/04/04 05:24:47;;;;;;;5.47;3.77;;;;;;;-2.29;78.98;99351.19;5024766;28;20235;-61
2023/04/04 05:27:17;;;;;;;6.97;3.30;;;;;;;-2.29;78.32;99352.88;5019985;28;20219;-61
2023/04/04 05:29:48;;;;;;;6.97;2.37;;;;;;;-2.29;78.91;99361.41;5024330;28;20228;-60
2023/04/04 05:32:15;;;;;;;4.75;2.95;;;;;;;-2.33;79.23;99364.09;5020943;28;21009;-60
2023/04/04 05:34:49;;;;;;;5.70;4.17;;;;;;;-2.32;80.56;99360.66;5022703;28;20227;-60
2023/04/04 05:37:18;;;;;;;6.33;3.17;;;;;;;-2.31;80.76;99365.75;5026537;28;20439;-61
2023/04/04 05:39:48;;;;;;;7.50;3.80;;;;;;;-2.32;80.03;99376.00;5029106;28;20230;-60
2023/04/04 05:42:15;;;;;;;6.83;2.70;;;;;;;-2.30;80.51;99371.69;5025105;28;20238;-61
2023/04/04 05:44:47;;;;;;;3.43;2.60;;;;;;;-2.29;82.35;99366.53;5032769;28;20234;-61
2023/04/04 05:47:14;;;;;;;6.30;2.70;;;;;;;-2.28;81.55;99365.63;5028055;28;20577;-62
2023/04/04 05:49:44;;;;;;;5.87;2.77;;;;;;;-2.31;82.68;99367.44;5029411;28;20325;-61
2023/04/04 05:52:12;;;;;;;4.37;2.40;;;;;;;-2.29;83.14;99373.34;5025665;28;20593;-61
2023/04/04 05:54:40;;;;;;;4.20;2.07;;;;;;;-2.33;83.21;99370.06;5011571;28;20231;-61
2023/04/04 05:57:12;;;;;;;7.67;2.73;;;;;;;-2.21;81.61;99368.81;5026556;28;20317;-61
2023/04/04 05:59:42;;;;;;;4.70;2.40;;;;;;;-2.26;81.45;99366.44;5027091;28;20709;-61
2023/04/04 06:02:12;;;;;;;8.82;3.22;;;;;;;-2.25;81.86;99364.69;5023227;28;20473;-61
2023/04/04 06:04:44;;;;;;;5.63;2.40;;;;;;;-2.21;81.99;99375.66;5026176;28;20242;-60
2023/04/04 06:07:13;;;;;;;4.60;2.50;;;;;;;-2.20;81.71;99369.66;5024357;28;20701;-61
2023/04/04 06:09:41;;;;;;;7.47;2.60;;;;;;;-2.12;80.64;99367.69;5026801;28;20232;-61
2023/04/04 06:12:08;;;;;;;5.93;2.30;;;;;;;-2.10;82.48;99364.16;5025817;28;20261;-61
2023/04/04 06:14:35;;;;;;;6.43;2.70;;;;;;;-2.13;82.29;99363.47;5044012;28;20277;-61
2023/04/04 06:17:04;;;;;;;8.33;4.13;;;;;;;-1.99;82.86;99370.66;5026427;28;20318;-61
2023/04/04 06:19:31;;;;;;;4.60;2.30;;;;;;;-2.00;82.19;99359.56;5030506;28;20623;-61
2023/04/04 06:21:58;;;;;;;8.80;4.20;;;;;;;-1.93;81.50;99365.31;5030020;28;20234;-62
2023/04/04 06:24:26;;;;;;;8.87;4.10;;;;;;;-1.90;81.64;99365.22;5009888;28;20331;-61
2023/04/04 06:26:53;;;;;;;8.57;3.80;;;;;;;-1.89;80.53;99363.47;5017807;28;20422;-61
2023/04/04 06:29:25;;;;;;;16.70;3.37;;;;;;;-1.72;80.58;99358.59;5023948;28;20754;-61
2023/04/04 06:31:53;;;;;;;4.07;2.77;;;;;;;-1.71;80.50;99357.72;5017824;28;20281;-62
2023/04/04 06:34:26;;;;;;;5.53;2.57;;;;;;;-1.67;80.28;99359.28;5023789;28;20231;-61
2023/04/04 06:36:55;;;;;;;3.60;2.43;;;;;;;-1.68;80.23;99360.16;5028394;28;20725;-61
2023/04/04 06:39:27;;;;;;;4.50;2.47;;;;;;;-1.67;80.61;99359.28;5023010;28;20251;-60
2023/04/04 06:41:57;;;;;;;4.80;2.60;;;;;;;-1.57;79.67;99362.31;5029002;28;20231;-61
2023/04/04 06:44:27;;;;;;;5.03;2.57;;;;;;;-1.53;78.49;99360.50;5025977;28;20337;-62
2023/04/04 06:46:54;;;;;;;3.70;2.50;;;;;;;-1.39;78.52;99372.78;5025116;28;20258;-59
2023/04/04 06:49:20;;;;;;;6.83;2.50;;;;;;;-1.38;79.83;99370.19;5025760;28;20714;-60
2023/04/04 06:51:49;;;;;;;4.13;2.57;;;;;;;-1.32;78.85;99370.84;5026689;28;20231;-60
2023/04/04 06:54:16;;;;;;;3.07;2.00;;;;;;;-1.22;78.15;99373.00;5022815;28;20220;-60
2023/04/04 06:56:44;;;;;;;4.53;2.10;;;;;;;-1.00;74.50;99371.34;5042592;28;20238;-59
2023/04/04 06:59:11;;;;;;;4.30;2.50;;;;;;;-0.88;72.64;99370.88;5025745;28;20662;-60
2023/04/04 07:01:38;;;;;;;5.57;2.80;;;;;;;-0.72;72.74;99366.00;5028446;28;20231;-60
2023/04/04 07:04:04;;;;;;;6.80;2.23;;;;;;;-0.34;68.18;99368.72;5027457;28;20288;-60
2023/04/04 07:06:31;;;;;;;5.53;2.60;;;;;;;-0.27;70.57;99374.44;5025048;28;20258;-60
2023/04/04 07:08:57;;;;;;;4.40;2.53;;;;;;;-0.24;71.39;99369.19;5043561;28;20241;-60
2023/04/04 07:11:24;;;;;;;7.33;2.40;;;;;;;-0.25;71.32;99370.09;5025536;28;20733;-61
2023/04/04 07:13:52;;;;;;;3.40;2.13;;;;;;;-0.18;70.75;99360.38;5026374;28;20900;-60
2023/04/04 07:16:18;;;;;;;4.10;2.30;;;;;;;-0.12;72.08;99369.56;5023941;28;20228;-60
2023/04/04 07:18:45;;;;;;;4.93;2.20;;;;;;;-0.05;71.69;99368.41;5027613;28;20235;-60
2023/04/04 07:21:12;;;;;;;6.30;2.47;;;;;;;0.29;61.51;99372.09;5024936;28;20234;-59
2023/04/04 07:23:38;;;;;;;5.80;2.43;;;;;;;0.49;62.03;99373.78;5027508;28;20262;-60
2023/04/04 07:26:05;;;;;;;3.47;2.33;;;;;;;0.64;62.84;99364.56;5026387;28;20223;-61
2023/04/04 07:28:32;;;;;;;3.93;2.37;;;;;;;0.85;59.44;99375.59;5025621;28;20228;-60
2023/04/04 07:31:02;;;;;;;5.67;2.17;;;;;;;0.97;60.37;99368.22;5027743;28;20245;-60
2023/04/04 07:33:28;;;;;;;4.73;2.37;;;;;;;1.09;60.14;99372.78;5024208;28;20231;-61
2023/04/04 07:35:55;;;;;;;3.23;2.10;;;;;;;1.25;60.07;99372.88;5026223;28;20699;-59
2023/04/04 07:38:22;;;;;;;5.30;2.37;;;;;;;1.38;62.01;99374.88;5023995;28;20455;-59
2023/04/04 07:40:49;;;;;;;4.50;2.63;;;;;;;1.50;56.87;99358.84;5025519;28;20325;-61
2023/04/04 07:43:15;;;;;;;5.33;2.63;;;;;;;1.64;56.81;99362.47;5022769;28;20241;-62
2023/04/04 07:45:42;;;;;;;6.63;2.90;;;;;;;1.76;57.85;99359.31;5027825;28;20290;-61
2023/04/04 07:48:10;;;;;;;4.50;2.57;;;;;;;1.90;58.41;99363.75;5024004;28;20966;-61
2023/04/04 07:50:36;;;;;;;3.20;2.00;;;;;;;1.97;58.75;99361.72;5027128;28;20239;-62
2023/04/04 07:53:03;;;;;;;4.40;2.40;;;;;;;2.06;61.21;99366.41;5025330;28;20646;-62
2023/04/04 07:55:30;;;;;;;4.83;2.00;;;;;;;2.14;59.58;99371.16;5025199;28;20224;-61
2023/04/04 07:57:57;;;;;;;7.17;2.30;;;;;;;2.17;54.94;99368.41;5026475;28;20582;-61
2023/04/04 08:00:25;;;;;;;6.67;2.53;;;;;;;2.23;54.53;99357.78;5024089;28;20228;-62
2023/04/04 08:02:52;;;;;;;3.50;2.50;;;;;;;2.37;52.54;99364.78;5027249;28;20235;-61
2023/04/04 08:05:20;;;;;;;4.40;2.20;;;;;;;2.46;52.45;99360.91;5023746;28;20673;-61
2023/04/04 08:07:47;;;;;;;4.23;2.33;;;;;;;2.60;52.75;99362.75;5026759;28;20228;-61
2023/04/04 08:10:16;;;;;;;4.10;2.10;;;;;;;2.72;54.82;99366.41;5024601;28;20323;-61
2023/04/04 08:12:42;;;;;;;5.43;2.30;;;;;;;2.79;52.59;99366.00;5026378;28;20235;-61
2023/04/04 08:15:10;;;;;;;5.57;2.57;;;;;;;2.87;51.86;99360.44;5022845;28;20239;-62
2023/04/04 08:17:37;;;;;;;6.10;2.70;;;;;;;3.03;51.91;99360.44;5028052;28;20251;-61
2023/04/04 08:20:04;;;;;;;3.90;2.93;;;;;;;3.13;49.47;99363.31;5027332;28;20226;-62
2023/04/04 08:22:32;;;;;;;3.87;1.90;;;;;;;3.26;48.32;99363.47;5025567;28;20232;-60
2023/04/04 08:24:59;;;;;;;5.47;2.13;;;;;;;3.32;48.28;99360.53;5026072;28;20228;-59
2023/04/04 08:27:26;;;;;;;6.23;2.47;;;;;;;3.42;49.22;99360.03;5023550;28;20233;-60
2023/04/04 08:29:52;;;;;;;4.50;2.00;;;;;;;3.43;47.08;99364.25;5025824;28;21140;-60
2023/04/04 08:32:19;;;;;;;3.73;2.40;;;;;;;3.52;47.71;99356.84;5019403;28;20512;-60
2023/04/04 08:34:46;;;;;;;4.27;2.40;;;;;;;3.47;48.67;99368.34;5023722;28;20224;-61
2023/04/04 08:37:12;;;;;;;7.00;2.77;;;;;;;3.49;46.86;99364.75;5020446;28;20208;-61
2023/04/04 08:39:40;;;;;;;3.63;2.17;;;;;;;3.61;46.69;99359.81;5026723;28;20236;-61
2023/04/04 08:42:09;;;;;;;6.60;3.23;;;;;;;3.83;49.23;99377.47;5024768;28;20745;-61
2023/04/04 08:44:39;;;;;;;3.80;2.17;;;;;;;3.85;45.85;99380.81;5023168;28;20228;-60
2023/04/04 08:47:09;;;;;;;3.77;2.30;;;;;;;3.81;45.67;99374.16;5025151;28;20594;-61
2023/04/04 08:49:38;;;;;;;5.13;2.67;;;;;;;3.89;45.58;99379.72;5024398;28;20235;-61
2023/04/04 08:52:06;;;;;;;4.80;2.20;;;;;;;3.96;45.68;99372.41;5024199;28;20235;-60
2023/04/04 08:54:34;;;;;;;5.23;2.43;;;;;;;3.88;45.48;99378.03;5023559;28;20227;-61
2023/04/04 08:57:02;;;;;;;8.23;2.13;;;;;;;3.83;43.22;99375.72;5025730;28;20240;-61
2023/04/04 08:59:29;;;;;;;5.63;2.40;;;;;;;3.94;45.34;99367.34;5022725;28;20235;-61
2023/04/04 09:02:01;;;;;;;8.77;2.40;;;;;;;4.08;45.94;99368.28;5024042;28;20599;-61
2023/04/04 09:04:28;;;;;;;3.77;2.10;;;;;;;4.08;44.32;99366.53;5021668;28;20235;-60
2023/04/04 09:06:56;;;;;;;3.20;2.23;;;;;;;4.22;46.27;99372.63;5026526;28;20231;-60
2023/04/04 09:09:23;;;;;;;6.13;2.60;;;;;;;4.24;43.95;99366.44;5023372;28;20229;-61
2023/04/04 09:11:51;;;;;;;7.23;2.53;;;;;;;4.31;45.94;99373.81;5024501;28;20230;-60
2023/04/04 09:14:21;;;;;;;5.87;2.50;;;;;;;4.25;43.90;99364.69;5022847;28;20689;-59
2023/04/04 09:16:47;;;;;;;5.27;2.53;;;;;;;4.34;44.09;99381.38;5024705;28;20503;-60
2023/04/04 09:19:14;;;;;;;3.57;2.20;;;;;;;4.37;43.97;99378.63;5022738;28;20231;-60
2023/04/04 09:21:46;;;;;;;6.43;2.60;;;;;;;4.44;42.71;99374.75;5024050;28;20234;-61
2023/04/04 09:24:14;;;;;;;4.10;2.47;;;;;;;4.32;42.82;99375.47;5022424;28;20286;-61
2023/04/04 09:26:48;;;;;;;3.00;2.10;;;;;;;4.47;45.54;99379.72;5024124;28;20233;-61
2023/04/04 09:29:17;;;;;;;5.73;2.50;;;;;;;4.54;43.19;99373.25;5021151;28;20299;-61
2023/04/04 09:31:45;;;;;;;5.60;2.50;;;;;;;4.50;43.06;99364.03;5024513;28;20297;-60
2023/04/04 09:34:13;;;;;;;4.33;2.33;;;;;;;4.65;43.63;99371.78;5020851;28;20272;-60
2023/04/04 09:36:40;;;;;;;5.27;2.37;;;;;;;4.71;44.99;99381.75;5024706;28;20618;-60
2023/04/04 09:39:07;;;;;;;4.53;2.50;;;;;;;4.77;44.42;99365.84;5024302;28;20266;-60
2023/04/04 09:41:34;;;;;;;3.57;2.53;;;;;;;4.74;42.40;99355.69;5024234;28;20235;-61
2023/04/04 09:44:01;;;;;;;4.27;2.10;;;;;;;4.64;41.82;99368.38;5024086;28;20243;-60
2023/04/04 09:46:27;;;;;;;5.00;2.50;;;;;;;4.67;41.80;99354.41;5021640;28;20231;-60
2023/04/04 09:48:56;;;;;;;5.40;2.33;;;;;;;4.76;43.00;99359.00;5026101;28;20227;-60
2023/04/04 09:51:22;;;;;;;3.87;2.10;;;;;;;4.87;42.66;99359.19;5019732;28;20699;-61
2023/04/04 09:53:51;;;;;;;4.13;2.73;;;;;;;4.95;43.75;99352.69;5024790;28;20706;-60
2023/04/04 09:56:19;;;;;;;3.67;2.20;;;;;;;4.95;43.36;99350.09;5024235;28;20273;-61
2023/04/04 09:58:47;;;;;;;3.13;1.83;;;;;;;4.91;41.03;99357.22;5024948;28;20227;-61
2023/04/04 10:01:14;;;;;;;7.60;2.50;;;;;;;5.09;41.72;99344.03;5021541;28;20247;-59
2023/04/04 10:03:41;;;;;;;4.27;2.13;;;;;;;5.23;42.93;99351.75;5024944;28;20240;-60
2023/04/04 10:06:10;;;;;;;4.03;2.10;;;;;;;5.29;43.28;99350.56;5021181;28;20232;-60
2023/04/04 10:08:39;;;;;;;5.87;2.23;;;;;;;5.43;44.09;99347.88;5023025;28;20282;-62
2023/04/04 10:11:06;;;;;;;3.00;2.10;;;;;;;5.49;42.55;99363.94;5024750;28;20277;-60
2023/04/04 10:13:35;;;;;;;3.63;2.13;;;;;;;5.57;42.41;99364.25;5021497;28;20236;-60
2023/04/04 10:16:04;;;;;;;5.70;2.27;;;;;;;5.55;40.63;99360.94;5024116;28;20279;-60
2023/04/04 10:18:31;;;;;;;5.03;2.30;;;;;;;5.68;41.00;99354.03;5026346;28;20240;-60
2023/04/04 10:21:01;;;;;;;7.23;2.50;;;;;;;5.65;41.57;99367.19;5026507;28;20235;-60
2023/04/04 10:23:29;;;;;;;5.10;2.10;;;;;;;5.59;40.48;99362.41;5024673;28;20247;-60
2023/04/04 10:25:56;;;;;;;2.70;1.47;;;;;;;5.49;39.19;99356.16;5028394;28;20278;-60
2023/04/04 10:28:23;;;;;;;4.53;2.50;;;;;;;5.74;40.02;99365.75;5026468;28;20247;-59
2023/04/04 10:30:55;;;;;;;3.70;2.23;;;;;;;5.75;39.75;99355.28;5028551;28;20239;-60
2023/04/04 10:33:29;;;;;;;4.80;1.93;;;;;;;5.84;39.92;99358.19;5025842;28;20235;-60
2023/04/04 10:36:01;;;;;;;4.83;2.20;;;;;;;5.98;40.72;99350.34;5028490;28;20249;-59
2023/04/04 10:38:35;;;;;;;3.37;2.07;;;;;;;5.99;41.12;99346.81;5025244;28;20236;-60
2023/04/04 10:41:02;;;;;;;3.93;2.07;;;;;;;6.04;39.63;99347.38;5026709;28;20281;-62
2023/04/04 10:43:32;;;;;;;5.03;2.83;;;;;;;6.00;39.41;99338.13;5026491;28;20235;-59
2023/04/04 10:46:07;;;;;;;6.40;2.23;;;;;;;6.08;40.31;99352.34;5028020;28;20262;-60
2023/04/04 10:48:35;;;;;;;4.90;2.60;;;;;;;6.18;40.05;99341.22;5026234;28;20292;-61
2023/04/04 10:51:03;;;;;;;5.13;2.00;;;;;;;6.27;41.62;99346.72;5028701;28;20223;-60
2023/04/04 10:53:32;;;;;;;3.53;2.07;;;;;;;6.34;40.96;99342.78;5024531;28;20649;-60
2023/04/04 10:55:59;;;;;;;2.87;1.83;;;;;;;6.50;40.42;99345.97;5028531;28;20285;-61
2023/04/04 10:58:27;;;;;;;4.20;2.30;;;;;;;6.44;39.54;99342.94;5025066;28;20235;-60
2023/04/04 11:00:56;;;;;;;3.33;2.30;;;;;;;6.21;39.67;99345.38;5027489;28;20228;-61
2023/04/04 11:03:23;;;;;;;3.17;2.23;;;;;;;6.23;39.29;99330.56;5025709;28;20247;-61
2023/04/04 11:05:54;;;;;;;6.77;2.47;;;;;;;6.33;40.27;99335.94;5027872;28;20230;-60
2023/04/04 11:08:23;;;;;;;6.17;2.40;;;;;;;6.39;39.69;99313.91;5024693;28;20220;-59
2023/04/04 11:10:53;;;;;;;10.67;3.00;;;;;;;6.35;40.34;99315.91;5027062;28;20235;-59
2023/04/04 11:13:25;;;;;;;4.20;2.60;;;;;;;6.40;39.71;99331.13;5022740;28;20231;-58
2023/04/04 11:15:55;;;;;;;6.40;2.73;;;;;;;6.15;39.69;99327.66;5027370;28;20714;-60
2023/04/04 11:18:23;;;;;;;3.83;2.27;;;;;;;6.36;40.96;99312.38;5029254;28;20239;-59
2023/04/04 11:20:50;;;;;;;5.50;2.60;;;;;;;6.40;39.91;99313.81;5026227;28;20252;-60
2023/04/04 11:23:19;;;;;;;5.17;2.13;;;;;;;6.26;38.99;99312.19;5024207;28;20611;-60
2023/04/04 11:25:54;;;;;;;5.17;2.07;;;;;;;6.27;39.65;99321.63;5026800;28;20254;-59
2023/04/04 11:28:45;;;;;;;5.53;2.30;;;;;;;6.33;39.61;99310.84;5024051;28;20912;-59
2023/04/04 11:31:28;;;;;;;3.57;2.47;;;;;;;6.35;39.59;99301.19;5023787;28;20654;-59
2023/04/04 11:33:58;;;;;;;4.63;2.60;;;;;;;6.40;39.66;99321.59;5027242;28;20223;-59
2023/04/04 11:36:50;;;;;;;6.13;2.50;;;;;;;6.37;38.48;99310.59;5026285;28;20262;-59
2023/04/04 11:39:26;;;;;;;6.23;2.60;;;;;;;6.41;38.92;99309.44;5024591;28;20224;-60
2023/04/04 11:41:56;;;;;;;4.53;2.67;;;;;;;6.47;39.25;99306.44;5025288;28;20579;-60
2023/04/04 11:44:23;;;;;;;3.57;2.50;;;;;;;6.53;39.34;99297.41;5023072;28;20244;-60